createdAt,value
2018-08-06T00:01:38.536Z,19.56
2018-08-06T00:04:10.047Z,19.56
2018-08-06T00:06:42.048Z,19.53
2018-08-06T00:09:14.960Z,19.56
2018-08-06T00:11:46.380Z,19.60
2018-08-06T00:14:19.491Z,19.64
2018-08-06T00:16:53.903Z,19.70
2018-08-06T00:19:26.852Z,19.69
2018-08-06T00:21:59.109Z,19.69
2018-08-06T00:24:29.017Z,19.77
2018-08-06T00:27:04.035Z,19.78
2018-08-06T00:29:34.048Z,19.80
2018-08-06T00:32:06.817Z,19.83
2018-08-06T00:34:39.936Z,19.80
2018-08-06T00:37:11.408Z,19.82
2018-08-06T00:39:45.987Z,19.81
2018-08-06T00:42:20.411Z,19.83
2018-08-06T00:44:51.914Z,19.82
2018-08-06T00:47:24.882Z,19.79
2018-08-06T00:49:56.561Z,19.77
2018-08-06T00:52:26.811Z,19.79
2018-08-06T00:54:57.162Z,19.77
2018-08-06T00:57:29.121Z,19.75
2018-08-06T01:00:03.496Z,19.78
2018-08-06T01:02:33.478Z,19.77
2018-08-06T01:05:05.861Z,19.74
2018-08-06T01:07:37.439Z,19.68
2018-08-06T01:10:11.352Z,19.57
2018-08-06T01:12:42.658Z,19.62
2018-08-06T01:15:17.265Z,19.63
2018-08-06T01:17:50.454Z,19.60
2018-08-06T01:20:22.837Z,19.57
2018-08-06T01:22:55.931Z,19.52
2018-08-06T01:25:27.418Z,19.48
2018-08-06T01:28:01.899Z,19.48
2018-08-06T01:30:33.580Z,19.37
2018-08-06T01:33:06.553Z,19.34
2018-08-06T01:35:39.566Z,19.37
2018-08-06T01:38:11.173Z,19.25
2018-08-06T01:40:44.341Z,19.26
2018-08-06T01:43:15.975Z,19.30
2018-08-06T01:45:46.071Z,19.28
2018-08-06T01:48:17.847Z,19.26
2018-08-06T01:50:50.734Z,19.29
2018-08-06T01:53:22.378Z,19.26
2018-08-06T01:55:54.466Z,19.26
2018-08-06T01:58:27.341Z,19.28
2018-08-06T02:01:00.255Z,19.28
2018-08-06T02:03:30.331Z,19.25
2018-08-06T02:06:02.398Z,19.23
2018-08-06T02:08:37.155Z,19.19
2018-08-06T02:11:08.614Z,19.22
2018-08-06T02:13:42.003Z,19.18
2018-08-06T02:16:13.564Z,19.10
2018-08-06T02:18:45.029Z,19.11
2018-08-06T02:21:17.993Z,19.11
2018-08-06T02:23:52.248Z,19.06
2018-08-06T02:26:25.570Z,19.00
2018-08-06T02:28:55.561Z,18.98
2018-08-06T02:31:28.089Z,18.94
2018-08-06T02:33:59.681Z,18.94
2018-08-06T02:36:31.136Z,18.90
2018-08-06T02:39:04.108Z,18.85
2018-08-06T02:41:35.916Z,18.83
2018-08-06T02:44:06.048Z,18.78
2018-08-06T02:46:38.462Z,18.73
2018-08-06T02:49:13.144Z,18.71
2018-08-06T02:51:44.609Z,18.64
2018-08-06T02:54:16.097Z,18.56
2018-08-06T02:56:48.275Z,18.51
2018-08-06T02:59:18.719Z,18.49
2018-08-06T03:01:51.635Z,18.44
2018-08-06T03:04:24.345Z,18.41
2018-08-06T03:06:55.797Z,18.40
2018-08-06T03:09:25.531Z,18.38
2018-08-06T03:11:57.017Z,18.37
2018-08-06T03:14:27.478Z,18.34
2018-08-06T03:16:58.892Z,18.30
2018-08-06T03:19:31.963Z,18.26
2018-08-06T03:22:04.979Z,18.22
2018-08-06T03:24:38.907Z,18.14
2018-08-06T03:27:10.601Z,18.01
2018-08-06T03:29:44.141Z,17.93
2018-08-06T03:32:14.183Z,17.84
2018-08-06T03:34:47.274Z,17.80
2018-08-06T03:37:17.178Z,17.86
2018-08-06T03:39:48.776Z,17.80
2018-08-06T03:42:21.846Z,17.81
2018-08-06T03:44:53.560Z,17.77
2018-08-06T03:47:23.785Z,17.81
2018-08-06T03:49:53.705Z,17.76
2018-08-06T03:52:24.098Z,17.79
2018-08-06T03:54:56.101Z,17.80
2018-08-06T03:57:28.412Z,17.79
2018-08-06T04:00:00.772Z,17.81
2018-08-06T04:02:33.730Z,17.81
2018-08-06T04:05:05.713Z,17.82
2018-08-06T04:07:39.261Z,17.84
2018-08-06T04:10:17.303Z,17.90
2018-08-06T04:12:50.573Z,17.90
2018-08-06T04:15:23.715Z,17.96
2018-08-06T04:17:56.874Z,18.28
2018-08-06T04:20:28.426Z,18.62
2018-08-06T04:23:00.174Z,19.07
2018-08-06T04:25:33.045Z,19.47
2018-08-06T04:28:05.954Z,19.80
2018-08-06T04:30:38.518Z,20.23
2018-08-06T04:33:10.424Z,20.51
2018-08-06T04:35:41.766Z,21.19
2018-08-06T04:38:13.271Z,21.75
2018-08-06T04:40:46.219Z,21.98
2018-08-06T04:43:16.290Z,22.14
2018-08-06T04:45:47.659Z,22.35
2018-08-06T04:48:20.694Z,22.56
2018-08-06T04:50:55.114Z,22.92
2018-08-06T04:53:28.060Z,22.95
2018-08-06T04:55:58.506Z,23.78
2018-08-06T04:58:31.404Z,24.06
2018-08-06T05:01:03.900Z,25.22
2018-08-06T05:03:38.212Z,25.97
2018-08-06T05:06:11.486Z,26.33
2018-08-06T05:08:43.064Z,26.62
2018-08-06T05:11:16.113Z,26.72
2018-08-06T05:13:47.887Z,27.47
2018-08-06T05:16:21.329Z,28.13
2018-08-06T05:18:52.849Z,28.12
2018-08-06T05:21:24.755Z,28.36
2018-08-06T05:24:01.629Z,28.56
2018-08-06T05:26:34.668Z,28.99
2018-08-06T05:29:04.938Z,29.62
2018-08-06T05:31:37.711Z,29.81
2018-08-06T05:34:11.388Z,30.04
2018-08-06T05:36:44.397Z,29.39
2018-08-06T05:39:15.937Z,29.34
2018-08-06T05:41:48.271Z,30.12
2018-08-06T05:44:18.459Z,30.15
2018-08-06T05:46:52.958Z,30.38
2018-08-06T05:49:24.834Z,30.23
2018-08-06T05:51:54.223Z,30.07
2018-08-06T05:54:28.601Z,30.68
2018-08-06T05:57:01.630Z,30.65
2018-08-06T05:59:34.427Z,30.69
2018-08-06T06:02:08.845Z,30.59
2018-08-06T06:04:41.684Z,30.61
2018-08-06T06:07:14.589Z,30.14
2018-08-06T06:09:47.535Z,30.31
2018-08-06T06:12:18.989Z,31.21
2018-08-06T06:14:51.915Z,31.40
2018-08-06T06:17:24.939Z,31.12
2018-08-06T06:19:56.286Z,31.86
2018-08-06T06:22:27.735Z,32.30
2018-08-06T06:25:00.670Z,31.53
2018-08-06T06:27:33.643Z,31.58
2018-08-06T06:30:05.543Z,32.32
2018-08-06T06:32:40.005Z,32.75
2018-08-06T06:35:15.131Z,32.22
2018-08-06T06:37:45.830Z,31.98
2018-08-06T06:40:16.052Z,32.01
2018-08-06T06:42:50.433Z,31.96
2018-08-06T06:45:23.262Z,31.98
2018-08-06T06:47:53.275Z,31.92
2018-08-06T06:50:24.617Z,31.90
2018-08-06T06:52:56.079Z,31.96
2018-08-06T06:55:27.498Z,32.75
2018-08-06T06:57:59.350Z,33.25
2018-08-06T07:00:29.775Z,32.84
2018-08-06T07:03:01.138Z,32.92
2018-08-06T07:05:31.735Z,32.25
2018-08-06T07:08:03.617Z,33.37
2018-08-06T07:10:34.171Z,33.10
2018-08-06T07:13:05.684Z,33.26
2018-08-06T07:15:40.279Z,33.10
2018-08-06T07:18:10.350Z,32.34
2018-08-06T07:20:43.195Z,33.77
2018-08-06T07:23:14.606Z,34.61
2018-08-06T07:25:45.945Z,34.30
2018-08-06T07:28:17.973Z,34.33
2018-08-06T07:30:47.912Z,34.42
2018-08-06T07:33:20.775Z,34.76
2018-08-06T07:35:52.332Z,34.45
2018-08-06T07:38:24.848Z,35.17
2018-08-06T07:40:54.738Z,35.86
2018-08-06T07:43:24.878Z,34.39
2018-08-06T07:45:54.780Z,35.68
2018-08-06T07:48:27.514Z,35.94
2018-08-06T07:51:00.677Z,35.94
2018-08-06T07:53:33.433Z,33.95
2018-08-06T07:56:04.814Z,35.94
2018-08-06T07:58:38.962Z,36.26
2018-08-06T08:01:13.103Z,35.97
2018-08-06T08:03:45.870Z,36.70
2018-08-06T08:06:15.799Z,35.61
2018-08-06T08:08:47.459Z,36.48
2018-08-06T08:11:18.791Z,36.85
2018-08-06T08:13:50.094Z,36.53
2018-08-06T08:16:21.925Z,37.04
2018-08-06T08:18:53.373Z,35.51
2018-08-06T08:21:26.241Z,36.89
2018-08-06T08:23:57.631Z,36.30
2018-08-06T08:26:29.128Z,36.67
2018-08-06T08:28:59.078Z,36.07
2018-08-06T08:31:28.995Z,36.20
2018-08-06T08:34:01.971Z,36.21
2018-08-06T08:36:35.046Z,36.38
2018-08-06T08:39:11.666Z,36.36
2018-08-06T08:41:43.600Z,36.71
2018-08-06T08:44:14.110Z,36.23
2018-08-06T08:46:45.951Z,36.23
2018-08-06T08:49:15.801Z,36.99
2018-08-06T08:51:48.691Z,36.54
2018-08-06T08:54:20.241Z,37.33
2018-08-06T08:56:53.004Z,35.62
2018-08-06T08:59:24.310Z,36.71
2018-08-06T09:01:57.628Z,36.69
2018-08-06T09:04:27.686Z,36.93
2018-08-06T09:06:58.087Z,37.71
2018-08-06T09:09:29.435Z,36.59
2018-08-06T09:12:01.586Z,35.79
2018-08-06T09:14:31.465Z,35.54
2018-08-06T09:17:02.832Z,37.08
2018-08-06T09:19:37.113Z,37.16
2018-08-06T09:22:07.767Z,37.09
2018-08-06T09:24:40.597Z,35.99
2018-08-06T09:27:11.935Z,37.25
2018-08-06T09:29:41.756Z,37.05
2018-08-06T09:32:11.669Z,36.85
2018-08-06T09:34:45.337Z,37.15
2018-08-06T09:37:18.555Z,36.97
2018-08-06T09:39:53.187Z,37.67
2018-08-06T09:42:23.076Z,36.84
2018-08-06T09:44:53.706Z,37.69
2018-08-06T09:47:24.290Z,37.03
2018-08-06T09:49:54.100Z,36.36
2018-08-06T09:52:27.933Z,36.16
2018-08-06T09:54:58.798Z,36.22
2018-08-06T09:57:30.191Z,36.91
2018-08-06T09:59:59.800Z,35.89
2018-08-06T10:02:31.227Z,36.77
2018-08-06T10:05:04.172Z,36.14
2018-08-06T10:07:37.676Z,35.55
2018-08-06T10:10:15.496Z,36.47
2018-08-06T10:12:47.521Z,35.73
2018-08-06T10:15:19.152Z,36.28
2018-08-06T10:17:51.523Z,34.66
2018-08-06T10:20:26.028Z,34.96
2018-08-06T10:22:58.952Z,35.59
2018-08-06T10:25:32.306Z,36.11
2018-08-06T10:28:03.689Z,35.73
2018-08-06T10:30:35.077Z,34.97
2018-08-06T10:33:06.476Z,35.91
2018-08-06T10:35:40.877Z,37.17
2018-08-06T10:38:12.401Z,36.23
2018-08-06T10:40:42.940Z,36.13
2018-08-06T10:43:14.318Z,36.59
2018-08-06T10:45:46.068Z,36.26
2018-08-06T10:48:19.040Z,34.53
2018-08-06T10:50:51.793Z,34.30
2018-08-06T10:53:24.837Z,34.94
2018-08-06T10:55:56.209Z,35.57
2018-08-06T10:58:28.047Z,34.71
2018-08-06T11:00:59.520Z,35.32
2018-08-06T11:03:32.312Z,35.58
2018-08-06T11:06:02.667Z,36.46
2018-08-06T11:08:34.608Z,36.04
2018-08-06T11:11:06.441Z,36.31
2018-08-06T11:13:35.764Z,36.41
2018-08-06T11:16:07.753Z,35.35
2018-08-06T11:18:39.615Z,34.90
2018-08-06T11:21:12.475Z,35.27
2018-08-06T11:23:42.324Z,35.20
2018-08-06T11:26:13.712Z,36.01
2018-08-06T11:28:45.025Z,35.10
2018-08-06T11:31:16.359Z,34.71
2018-08-06T11:33:47.816Z,34.92
2018-08-06T11:36:17.655Z,34.64
2018-08-06T11:38:49.482Z,34.44
2018-08-06T11:41:19.716Z,35.65
2018-08-06T11:43:51.091Z,35.48
2018-08-06T11:46:22.437Z,34.34
2018-08-06T11:48:53.862Z,34.65
2018-08-06T11:51:26.678Z,35.36
2018-08-06T11:53:58.060Z,35.21
2018-08-06T11:56:30.913Z,34.88
2018-08-06T11:59:01.874Z,35.01
2018-08-06T12:01:33.281Z,35.26
2018-08-06T12:04:04.706Z,35.57
2018-08-06T12:06:38.407Z,35.21
2018-08-06T12:09:14.524Z,33.94
2018-08-06T12:11:46.030Z,34.38
2018-08-06T12:14:18.884Z,34.48
2018-08-06T12:16:53.225Z,34.83
2018-08-06T12:19:27.777Z,34.10
2018-08-06T12:22:00.717Z,34.03
2018-08-06T12:24:35.390Z,34.32
2018-08-06T12:27:07.212Z,34.76
2018-08-06T12:29:37.061Z,34.65
2018-08-06T12:32:10.255Z,34.46
2018-08-06T12:34:41.587Z,34.70
2018-08-06T12:37:12.913Z,34.70
2018-08-06T12:39:47.215Z,33.38
2018-08-06T12:42:18.606Z,33.45
2018-08-06T12:44:51.399Z,34.48
2018-08-06T12:47:25.803Z,34.83
2018-08-06T12:49:55.712Z,33.60
2018-08-06T12:52:26.995Z,34.20
2018-08-06T12:55:00.147Z,33.82
2018-08-06T12:57:32.981Z,34.12
2018-08-06T13:00:06.187Z,34.04
2018-08-06T13:02:38.275Z,34.41
2018-08-06T13:05:11.454Z,34.08
2018-08-06T13:07:43.042Z,33.98
2018-08-06T13:10:15.599Z,34.37
2018-08-06T13:12:49.936Z,34.20
2018-08-06T13:15:20.375Z,34.23
2018-08-06T13:17:51.776Z,34.50
2018-08-06T13:20:24.799Z,35.02
2018-08-06T13:22:56.181Z,34.67
2018-08-06T13:25:27.399Z,33.92
2018-08-06T13:27:57.619Z,34.03
2018-08-06T13:30:28.981Z,34.49
2018-08-06T13:33:02.565Z,33.76
2018-08-06T13:35:33.004Z,34.49
2018-08-06T13:38:02.898Z,34.23
2018-08-06T13:40:32.731Z,33.85
2018-08-06T13:43:04.157Z,34.59
2018-08-06T13:45:37.016Z,34.76
2018-08-06T13:48:10.381Z,34.61
2018-08-06T13:50:43.255Z,34.66
2018-08-06T13:53:15.884Z,34.88
2018-08-06T13:55:50.099Z,34.95
2018-08-06T13:58:22.908Z,35.07
2018-08-06T14:00:56.359Z,34.77
2018-08-06T14:03:29.190Z,35.03
2018-08-06T14:06:00.640Z,35.06
2018-08-06T14:08:31.967Z,35.01
2018-08-06T14:11:02.427Z,34.77
2018-08-06T14:13:34.108Z,34.37
2018-08-06T14:16:05.471Z,34.93
2018-08-06T14:18:36.449Z,34.59
2018-08-06T14:21:12.072Z,34.16
2018-08-06T14:23:45.110Z,34.12
2018-08-06T14:26:16.714Z,34.35
2018-08-06T14:28:48.089Z,34.33
2018-08-06T14:31:17.898Z,33.98
2018-08-06T14:33:51.037Z,34.03
2018-08-06T14:36:25.311Z,34.71
2018-08-06T14:38:58.089Z,34.59
2018-08-06T14:41:30.888Z,34.03
2018-08-06T14:44:01.905Z,33.73
2018-08-06T14:46:31.668Z,33.67
2018-08-06T14:49:03.382Z,33.83
2018-08-06T14:51:36.288Z,33.59
2018-08-06T14:54:10.019Z,33.86
2018-08-06T14:56:43.222Z,34.23
2018-08-06T14:59:13.096Z,34.10
2018-08-06T15:01:44.507Z,34.00
2018-08-06T15:04:17.390Z,34.41
2018-08-06T15:06:47.325Z,34.16
2018-08-06T15:09:17.349Z,34.26
2018-08-06T15:11:50.156Z,34.32
2018-08-06T15:14:20.960Z,34.14
2018-08-06T15:16:56.247Z,33.88
2018-08-06T15:19:28.995Z,34.08
2018-08-06T15:22:00.398Z,34.27
2018-08-06T15:24:34.113Z,34.02
2018-08-06T15:27:05.804Z,33.97
2018-08-06T15:29:37.170Z,33.08
2018-08-06T15:32:07.125Z,33.05
2018-08-06T15:34:37.077Z,33.48
2018-08-06T15:37:11.238Z,33.76
2018-08-06T15:39:44.180Z,33.47
2018-08-06T15:42:18.454Z,33.32
2018-08-06T15:44:49.931Z,33.36
2018-08-06T15:47:22.844Z,33.05
2018-08-06T15:49:55.937Z,33.30
2018-08-06T15:52:28.846Z,32.76
2018-08-06T15:55:00.277Z,32.36
2018-08-06T15:57:33.356Z,32.14
2018-08-06T16:00:04.698Z,32.45
2018-08-06T16:02:36.655Z,32.38
2018-08-06T16:05:09.706Z,32.45
2018-08-06T16:07:42.848Z,32.23
2018-08-06T16:10:15.101Z,32.33
2018-08-06T16:12:46.541Z,31.72
2018-08-06T16:15:18.223Z,31.88
2018-08-06T16:17:50.797Z,31.97
2018-08-06T16:20:22.178Z,31.88
2018-08-06T16:22:56.444Z,32.07
2018-08-06T16:25:26.768Z,31.83
2018-08-06T16:27:56.785Z,31.91
2018-08-06T16:30:27.625Z,31.51
2018-08-06T16:33:00.524Z,31.60
2018-08-06T16:35:33.806Z,31.40
2018-08-06T16:38:05.181Z,31.61
2018-08-06T16:40:35.149Z,31.36
2018-08-06T16:43:09.588Z,31.45
2018-08-06T16:45:42.347Z,31.54
2018-08-06T16:48:14.234Z,31.60
2018-08-06T16:50:47.060Z,31.46
2018-08-06T16:53:16.998Z,31.42
2018-08-06T16:55:52.573Z,31.19
2018-08-06T16:58:22.492Z,31.20
2018-08-06T17:00:53.370Z,31.31
2018-08-06T17:03:23.803Z,31.31
2018-08-06T17:05:56.558Z,31.21
2018-08-06T17:08:26.454Z,31.17
2018-08-06T17:10:59.282Z,30.96
2018-08-06T17:13:29.240Z,31.18
2018-08-06T17:16:02.072Z,31.09
2018-08-06T17:18:33.498Z,31.20
2018-08-06T17:21:02.796Z,31.05
2018-08-06T17:23:34.216Z,31.07
2018-08-06T17:26:07.233Z,30.88
2018-08-06T17:28:38.509Z,30.55
2018-08-06T17:31:09.927Z,30.80
2018-08-06T17:33:41.455Z,30.81
2018-08-06T17:36:13.012Z,31.04
2018-08-06T17:38:44.318Z,30.82
2018-08-06T17:41:16.144Z,30.98
2018-08-06T17:43:47.966Z,30.87
2018-08-06T17:46:17.871Z,30.72
2018-08-06T17:48:49.310Z,30.83
2018-08-06T17:51:19.152Z,30.77
2018-08-06T17:53:49.136Z,30.78
2018-08-06T17:56:19.418Z,30.72
2018-08-06T17:58:50.742Z,30.64
2018-08-06T18:01:20.649Z,30.47
2018-08-06T18:03:52.206Z,30.60
2018-08-06T18:06:22.075Z,30.40
2018-08-06T18:08:55.224Z,30.34
2018-08-06T18:11:28.475Z,30.51
2018-08-06T18:13:59.936Z,30.30
2018-08-06T18:16:32.906Z,30.18
2018-08-06T18:19:05.192Z,30.03
2018-08-06T18:21:36.646Z,29.95
2018-08-06T18:24:06.788Z,29.80
2018-08-06T18:26:40.587Z,29.57
2018-08-06T18:29:10.421Z,29.48
2018-08-06T18:31:42.541Z,29.36
2018-08-06T18:34:15.427Z,29.22
2018-08-06T18:36:48.338Z,29.15
2018-08-06T18:39:20.800Z,29.12
2018-08-06T18:41:53.942Z,28.99
2018-08-06T18:44:25.289Z,28.84
2018-08-06T18:46:55.188Z,28.74
2018-08-06T18:49:28.062Z,28.59
2018-08-06T18:51:59.540Z,28.45
2018-08-06T18:54:30.862Z,28.20
2018-08-06T18:57:01.153Z,28.37
2018-08-06T18:59:34.058Z,28.21
2018-08-06T19:02:03.972Z,28.20
2018-08-06T19:04:33.915Z,28.17
2018-08-06T19:07:03.924Z,28.04
2018-08-06T19:09:38.318Z,27.96
2018-08-06T19:12:32.943Z,27.94
2018-08-06T19:15:04.321Z,27.75
2018-08-06T19:17:37.793Z,27.63
2018-08-06T19:20:10.894Z,27.47
2018-08-06T19:22:40.994Z,27.20
2018-08-06T19:25:30.033Z,27.34
2018-08-06T19:28:01.516Z,27.31
2018-08-06T19:30:52.238Z,27.21
2018-08-06T19:33:23.956Z,27.01
2018-08-06T19:35:55.924Z,26.88
2018-08-06T19:38:27.521Z,26.70
2018-08-06T19:40:59.052Z,26.39
2018-08-06T19:43:41.240Z,26.34
2018-08-06T19:46:13.440Z,26.40
2018-08-06T19:48:44.803Z,26.50
2018-08-06T19:51:17.703Z,26.43
2018-08-06T19:53:49.326Z,26.20
2018-08-06T19:56:22.524Z,26.38
2018-08-06T19:58:55.574Z,26.34
2018-08-06T20:01:25.499Z,26.25
2018-08-06T20:03:56.058Z,26.27
2018-08-06T20:06:28.275Z,26.21
2018-08-06T20:08:58.235Z,26.07
2018-08-06T20:11:31.600Z,25.97
2018-08-06T20:14:04.531Z,25.91
2018-08-06T20:16:36.030Z,25.87
2018-08-06T20:19:09.617Z,25.93
2018-08-06T20:21:41.123Z,25.87
2018-08-06T20:24:12.612Z,25.70
2018-08-06T20:26:44.371Z,25.53
2018-08-06T20:29:17.381Z,25.50
2018-08-06T20:31:49.120Z,25.55
2018-08-06T20:34:19.045Z,25.57
2018-08-06T20:36:50.629Z,25.45
2018-08-06T20:39:23.623Z,25.37
2018-08-06T20:41:55.192Z,25.36
2018-08-06T20:44:25.208Z,25.18
2018-08-06T20:46:56.752Z,25.17
2018-08-06T20:49:28.326Z,25.10
2018-08-06T20:52:00.042Z,25.07
2018-08-06T20:54:30.126Z,24.81
2018-08-06T20:57:04.524Z,24.65
2018-08-06T20:59:34.449Z,24.52
2018-08-06T21:02:04.419Z,24.57
2018-08-06T21:04:36.045Z,24.47
2018-08-06T21:07:07.662Z,24.56
2018-08-06T21:09:40.626Z,24.55
2018-08-06T21:12:13.432Z,24.53
2018-08-06T21:14:43.344Z,24.50
2018-08-06T21:17:15.294Z,24.03
2018-08-06T21:19:46.749Z,23.68
2018-08-06T21:22:17.456Z,23.72
2018-08-06T21:24:48.954Z,23.95
2018-08-06T21:27:20.621Z,23.97
2018-08-06T21:29:51.980Z,23.67
2018-08-06T21:32:24.993Z,23.52
2018-08-06T21:34:55.070Z,23.54
2018-08-06T21:37:25.088Z,23.56
2018-08-06T21:39:57.153Z,23.50
2018-08-06T21:42:29.957Z,23.49
2018-08-06T21:45:01.523Z,23.37
2018-08-06T21:47:33.800Z,23.33
2018-08-06T21:50:05.901Z,23.25
2018-08-06T21:52:38.268Z,23.27
2018-08-06T21:55:12.367Z,23.38
2018-08-06T21:57:45.326Z,23.41
2018-08-06T22:00:31.274Z,23.35
2018-08-06T22:03:04.608Z,23.21
2018-08-06T22:05:36.205Z,23.05
2018-08-06T22:08:09.233Z,23.17
2018-08-06T22:10:40.790Z,23.23
2018-08-06T22:13:13.864Z,23.20
2018-08-06T22:15:45.279Z,23.20
2018-08-06T22:18:15.056Z,23.17
2018-08-06T22:20:47.782Z,23.13
2018-08-06T22:23:17.707Z,23.06
2018-08-06T22:25:49.102Z,23.04
2018-08-06T22:28:21.936Z,23.06
2018-08-06T22:30:51.866Z,23.06
2018-08-06T22:33:23.891Z,23.07
2018-08-06T22:35:55.363Z,23.05
2018-08-06T22:38:28.266Z,23.04
2018-08-06T22:40:58.845Z,22.76
2018-08-06T22:43:31.767Z,22.38
2018-08-06T22:46:03.268Z,22.32
2018-08-06T22:48:33.418Z,22.37
2018-08-06T22:51:06.273Z,22.40
2018-08-06T22:53:36.878Z,22.39
2018-08-06T22:56:13.726Z,22.33
2018-08-06T22:58:46.984Z,22.26
2018-08-06T23:01:18.895Z,22.17
2018-08-06T23:03:50.366Z,22.16
2018-08-06T23:06:23.311Z,22.13
2018-08-06T23:08:54.973Z,22.17
2018-08-06T23:11:29.288Z,22.09
2018-08-06T23:13:59.817Z,22.07
2018-08-06T23:16:32.691Z,22.14
2018-08-06T23:19:05.575Z,21.99
2018-08-06T23:21:38.589Z,22.03
2018-08-06T23:24:11.620Z,21.99
2018-08-06T23:26:43.093Z,22.03
2018-08-06T23:29:13.068Z,22.10
2018-08-06T23:31:46.342Z,21.98
2018-08-06T23:34:20.818Z,21.72
2018-08-06T23:36:52.316Z,21.69
2018-08-06T23:39:23.827Z,21.54
2018-08-06T23:41:55.321Z,21.42
2018-08-06T23:44:26.716Z,21.36
2018-08-06T23:46:56.695Z,21.52
2018-08-06T23:49:27.135Z,21.58
2018-08-06T23:51:57.462Z,21.59
2018-08-06T23:54:30.308Z,21.37
2018-08-06T23:57:01.771Z,21.23
2018-08-06T23:59:31.675Z,21.06
